createdAt,value
2019-04-06T05:33:53.255Z,3.58
2019-04-06T05:36:24.685Z,3.53
2019-04-06T05:38:56.198Z,3.60
2019-04-06T05:41:33.667Z,8.37
2019-04-06T05:44:05.509Z,3.50
2019-04-06T05:46:36.757Z,3.37
2019-04-06T05:49:06.780Z,5.43
2019-04-06T06:17:14.348Z,3.10
2019-04-06T06:19:49.158Z,3.50
2019-04-06T06:22:23.089Z,3.23
2019-04-06T06:24:55.142Z,3.50
2019-04-06T06:27:25.659Z,4.00
2019-04-06T06:29:56.366Z,3.83
2019-04-06T06:32:27.371Z,3.67
2019-04-06T06:35:02.537Z,4.10
2019-04-06T06:37:37.235Z,4.03
2019-04-06T06:40:09.198Z,3.97
2019-04-06T06:42:40.384Z,4.00
2019-04-06T06:45:11.933Z,3.70
2019-04-06T06:47:44.900Z,2.70
2019-04-06T06:50:19.519Z,3.53
2019-04-06T06:52:54.083Z,3.77
2019-04-06T06:55:29.154Z,5.40
2019-04-06T06:58:02.016Z,3.70
2019-04-06T07:00:32.303Z,3.23
2019-04-06T07:03:04.538Z,4.20
2019-04-06T09:34:36.333Z,18.23
2019-04-06T09:37:06.565Z,19.27
2019-04-06T09:39:37.853Z,18.93
2019-04-06T09:42:08.791Z,18.37
2019-04-06T09:45:01.773Z,18.90
2019-04-06T09:47:57.000Z,18.67
2019-04-06T09:51:00.143Z,18.03
2019-04-06T09:54:05.197Z,19.23
2019-04-06T09:56:42.633Z,19.07
2019-04-06T09:59:35.196Z,17.90
2019-04-06T10:06:08.956Z,5.10
2019-04-06T10:08:51.059Z,5.27
2019-04-06T10:11:48.377Z,4.40
2019-04-06T10:14:45.948Z,5.00
2019-04-06T10:17:35.027Z,5.00
2019-04-06T10:20:32.513Z,7.20
2019-04-06T10:23:23.582Z,5.60
2019-04-06T10:26:19.143Z,5.10
2019-04-06T10:29:07.418Z,5.87
2019-04-06T10:32:11.463Z,5.10
2019-04-06T10:34:58.259Z,5.93
2019-04-06T10:38:06.161Z,12.90
2019-04-06T10:40:45.149Z,13.72
2019-04-06T10:43:38.113Z,17.23
2019-04-06T10:46:26.900Z,19.77
2019-04-06T10:49:24.526Z,16.30
2019-04-06T10:52:07.277Z,15.40
2019-04-06T10:54:58.501Z,13.83
2019-04-06T10:57:45.177Z,13.60
2019-04-06T11:00:31.047Z,13.80
2019-04-06T11:03:12.886Z,17.57
2019-04-06T11:05:56.944Z,17.17
2019-04-06T11:08:48.943Z,16.53
2019-04-06T11:11:45.942Z,16.67
2019-04-06T11:14:40.727Z,17.07
2019-04-06T11:17:37.222Z,15.20
2019-04-06T11:20:29.173Z,14.70
2019-04-06T11:23:18.584Z,13.30
2019-04-06T11:26:09.674Z,14.30
2019-04-06T11:29:00.151Z,13.20
2019-04-06T11:31:54.771Z,10.83
2019-04-06T11:34:45.133Z,12.57
2019-04-06T11:37:31.716Z,15.80
2019-04-06T11:40:25.957Z,13.80
2019-04-06T11:43:10.584Z,11.40
2019-04-06T11:46:00.390Z,11.83
2019-04-06T11:48:48.421Z,13.27
2019-04-06T11:51:42.358Z,14.67
2019-04-06T11:54:30.918Z,12.20
2019-04-06T11:57:26.193Z,13.33
2019-04-06T12:00:25.552Z,11.93
2019-04-06T12:03:08.149Z,11.03
2019-04-06T12:05:57.147Z,13.20
2019-04-06T12:08:51.557Z,11.97
2019-04-06T12:11:48.547Z,13.73
2019-04-06T12:14:31.030Z,14.33
2019-04-06T12:17:23.293Z,16.10
2019-04-06T12:20:05.901Z,14.47
2019-04-06T12:22:50.717Z,15.77
2019-04-06T12:25:53.690Z,13.70
2019-04-06T12:28:43.544Z,15.43
2019-04-06T12:31:24.075Z,14.33
2019-04-06T12:34:16.542Z,13.53
2019-04-06T12:37:11.199Z,17.30
2019-04-06T12:39:53.752Z,16.57
2019-04-06T12:42:36.396Z,13.83
2019-04-06T12:45:24.390Z,18.73
2019-04-06T12:48:12.883Z,20.70
2019-04-06T12:51:09.772Z,14.90
2019-04-06T12:53:50.124Z,15.05
2019-04-06T12:56:34.605Z,16.40
2019-04-06T12:59:17.753Z,14.03
